Main page
METAR-TAF:

METAR-TAF

Airports :

Tunis, Tunisia

Tunis–Carthage International Airport

latitude: 36-50N, longitude: 010-14E, elevation: 3 m

Current weather observation

The report was made 31 minutes ago, at 08:30 UTC
Wind 3 kt from the South, varying between Southeast and West/Southwest
Temperature 19°C
Humidity 49%
Pressure 1015 hPa
Visibility 10 km or more
Few clouds at a height of 3000 ft

METAR: DTTA 300830Z 18003KT 130V250 9999 FEW030 19/08 Q1015 NOSIG

Time: 10:01 (09:01 UTC)

Forecast

The report was made 4 hours and 1 minutes ago, at 05:00 UTC
Forecast valid from 30 at 06 UTC to 01 at 06 UTC
Wind 3 kt from variable directions
Visibility 10 km or more
Scattered clouds at a height of 2300 ft
Becoming
from 30 at 11 UTC to 30 at 13 UTC
Wind 10 kt from the East/Northeast
Becoming
from 30 at 18 UTC to 30 at 20 UTC
Wind 3 kt from variable directions

TAF: DTTA 300500Z 3006/0106 VRB03KT 9999 SCT023 BECMG 3011/3013 06010KT BECMG 3018/3020 VRB03KT

Weather observations and forecasts of more than 4000 airports (METAR and TAF reports).

The available stations are represented by yellow and red dots on the map.

Hover mouse over dot to see the name of the station.

Then click to see weather observations and forecasts.

To change the map : click on the green buttons with a black cross to zoom in, on the green button with a dash to zoom out, or on the green arrows for adjacent maps.


METAR-TAF: